createdAt,value
2022-11-24T00:00:54.940Z,12.35
2022-11-24T00:03:22.993Z,11.52
2022-11-24T00:05:50.982Z,12.48
2022-11-24T00:08:18.944Z,12.23
2022-11-24T00:10:48.383Z,11.38
2022-11-24T00:13:16.277Z,12.70
2022-11-24T00:15:44.185Z,12.02
2022-11-24T00:18:11.867Z,12.73
2022-11-24T00:23:08.023Z,12.75
2022-11-24T00:25:35.870Z,12.07
2022-11-24T00:28:05.098Z,12.02
2022-11-24T00:30:34.984Z,12.38
2022-11-24T00:33:02.816Z,15.13
2022-11-24T00:35:30.577Z,11.98
2022-11-24T00:37:58.791Z,14.00
2022-11-24T00:42:57.442Z,14.60
2022-11-24T00:47:54.218Z,17.73
2022-11-24T00:50:22.552Z,18.42
2022-11-24T00:52:50.217Z,17.67
2022-11-24T00:57:45.462Z,19.30
2022-11-24T01:02:41.730Z,20.25
2022-11-24T01:07:38.561Z,18.95
2022-11-24T01:10:06.981Z,19.13
2022-11-24T01:12:35.752Z,18.08
2022-11-24T01:15:03.538Z,17.40
2022-11-24T01:17:31.292Z,18.38
2022-11-24T01:22:27.528Z,16.85
2022-11-24T01:24:56.653Z,17.15
2022-11-24T01:27:24.331Z,17.45
2022-11-24T01:32:19.644Z,15.45
2022-11-24T01:37:14.839Z,16.10
2022-11-24T01:42:11.402Z,16.08
2022-11-24T01:44:39.289Z,16.30
2022-11-24T01:47:09.368Z,16.05
2022-11-24T01:49:39.426Z,15.93
2022-11-24T01:52:09.662Z,16.63
2022-11-24T01:54:39.060Z,15.48
2022-11-24T01:57:09.713Z,15.88
2022-11-24T01:59:38.853Z,17.40
2022-11-24T02:02:06.732Z,16.48
2022-11-24T02:04:35.175Z,17.17
2022-11-24T02:07:04.585Z,17.65
2022-11-24T02:09:35.409Z,16.27
2022-11-24T02:12:03.611Z,17.02
2022-11-24T02:14:31.606Z,17.95
2022-11-24T02:17:00.930Z,18.00
2022-11-24T02:19:33.094Z,17.83
2022-11-24T02:22:01.614Z,18.30
2022-11-24T02:24:33.962Z,18.35
2022-11-24T02:27:03.587Z,18.00
2022-11-24T02:29:31.340Z,18.33
2022-11-24T02:32:00.453Z,17.42
2022-11-24T02:34:28.108Z,19.48
2022-11-24T02:39:23.357Z,19.48
2022-11-24T02:44:21.178Z,20.05
2022-11-24T02:46:48.856Z,18.00
2022-11-24T02:51:44.522Z,20.10
2022-11-24T02:56:39.971Z,23.13
2022-11-24T03:01:36.575Z,24.08
2022-11-24T03:04:04.433Z,25.92
2022-11-24T03:06:32.126Z,27.13
2022-11-24T03:11:27.366Z,29.42
2022-11-24T03:16:22.618Z,29.85
2022-11-24T03:18:53.051Z,30.63
2022-11-24T03:21:21.009Z,33.88
2022-11-24T03:23:48.714Z,34.45
2022-11-24T03:28:44.101Z,36.22
2022-11-24T03:31:12.476Z,37.47
2022-11-24T03:33:40.352Z,36.17
2022-11-24T03:36:10.117Z,35.20
2022-11-24T03:38:37.882Z,34.60
2022-11-24T03:41:05.706Z,33.65
2022-11-24T03:43:33.377Z,33.17
2022-11-24T03:48:28.636Z,34.85
2022-11-24T03:53:27.123Z,33.25
2022-11-24T03:55:54.888Z,33.72
2022-11-24T04:00:51.074Z,37.17
2022-11-24T04:03:19.196Z,35.22
2022-11-24T04:05:46.925Z,37.40
2022-11-24T04:10:44.035Z,35.45
2022-11-24T04:13:12.212Z,38.30
2022-11-24T04:15:41.214Z,35.22
2022-11-24T04:18:09.645Z,37.72
2022-11-24T04:20:37.795Z,37.72
2022-11-24T04:23:06.013Z,39.80
2022-11-24T04:25:33.963Z,39.78
2022-11-24T04:28:03.042Z,39.58
2022-11-24T04:30:30.852Z,41.30
2022-11-24T04:32:59.021Z,42.05
2022-11-24T04:35:26.854Z,42.03
2022-11-24T04:37:54.678Z,41.17
2022-11-24T04:40:22.507Z,42.00
2022-11-24T04:42:54.764Z,42.50
2022-11-24T04:45:24.285Z,42.13
2022-11-24T04:47:52.043Z,44.92
2022-11-24T04:52:47.356Z,45.25
2022-11-24T04:55:15.874Z,46.50
2022-11-24T04:57:43.611Z,46.13
2022-11-24T05:02:40.652Z,46.05
2022-11-24T05:05:08.752Z,43.22
2022-11-24T05:07:36.516Z,46.47
2022-11-24T05:10:21.609Z,46.42
2022-11-24T05:12:55.073Z,46.85
2022-11-24T05:15:22.786Z,47.08
2022-11-24T05:20:19.724Z,48.13
2022-11-24T05:22:47.783Z,46.78
2022-11-24T05:25:17.098Z,47.47
2022-11-24T05:27:44.940Z,47.42
2022-11-24T05:30:13.125Z,47.55
2022-11-24T05:32:40.801Z,49.42
2022-11-24T05:40:07.677Z,48.30
2022-11-24T05:42:47.758Z,46.35
2022-11-24T05:45:17.443Z,45.05
2022-11-24T05:47:45.186Z,46.83
2022-11-24T05:52:40.604Z,42.63
2022-11-24T05:55:10.759Z,43.90
2022-11-24T05:57:38.454Z,44.20
2022-11-24T06:02:40.361Z,40.33
2022-11-24T06:05:09.209Z,40.70
2022-11-24T06:07:37.245Z,42.55
2022-11-24T06:10:05.634Z,41.30
2022-11-24T06:12:34.765Z,38.22
2022-11-24T06:15:02.445Z,40.08
2022-11-24T06:19:57.763Z,41.33
2022-11-24T06:24:52.969Z,36.40
2022-11-24T06:29:49.611Z,36.67
2022-11-24T06:32:17.559Z,39.72
2022-11-24T06:34:45.308Z,38.83
2022-11-24T06:37:13.041Z,37.55
2022-11-24T06:42:08.293Z,36.33
2022-11-24T06:47:05.411Z,37.85
2022-11-24T06:49:33.439Z,36.63
2022-11-24T06:52:01.140Z,38.28
2022-11-24T06:56:57.213Z,36.80
2022-11-24T06:59:25.083Z,36.45
2022-11-24T07:01:52.877Z,34.10
2022-11-24T07:06:49.656Z,36.33
2022-11-24T07:09:17.412Z,36.50
2022-11-24T07:14:12.786Z,39.15
2022-11-24T07:16:40.753Z,34.90
2022-11-24T07:19:10.286Z,35.03
2022-11-24T07:21:38.120Z,36.42
2022-11-24T07:26:37.391Z,35.80
2022-11-24T07:29:05.867Z,33.95
2022-11-24T07:31:33.736Z,36.38
2022-11-24T07:34:01.551Z,33.90
2022-11-24T07:38:56.881Z,33.20
2022-11-24T07:43:53.510Z,32.13
2022-11-24T07:46:21.689Z,35.95
2022-11-24T07:48:49.596Z,34.05
2022-11-24T07:51:17.462Z,34.28
2022-11-24T07:53:45.960Z,33.47
2022-11-24T07:56:13.769Z,34.28
2022-11-24T07:58:41.598Z,35.45
2022-11-24T08:01:14.821Z,37.10
2022-11-24T08:03:42.993Z,35.55
2022-11-24T08:06:30.544Z,32.25
2022-11-24T08:08:59.140Z,36.20
2022-11-24T08:11:27.076Z,35.95
2022-11-24T08:13:54.785Z,32.50
2022-11-24T08:18:52.096Z,34.65
2022-11-24T08:21:19.931Z,37.45
2022-11-24T08:23:47.701Z,37.00
2022-11-24T08:28:44.216Z,33.97
2022-11-24T08:31:13.127Z,33.55
2022-11-24T08:33:41.211Z,34.08
2022-11-24T08:36:12.090Z,35.47
2022-11-24T08:38:40.198Z,36.00
2022-11-24T08:41:09.111Z,37.25
2022-11-24T08:43:37.057Z,37.42
2022-11-24T08:46:06.399Z,37.05
2022-11-24T08:48:34.553Z,37.17
2022-11-24T08:51:07.818Z,39.45
2022-11-24T08:53:36.951Z,37.22
2022-11-24T08:56:05.378Z,38.88
2022-11-24T08:58:33.591Z,40.92
2022-11-24T09:01:05.336Z,40.35
2022-11-24T09:03:33.232Z,38.97
2022-11-24T09:06:00.992Z,40.58
2022-11-24T09:11:01.586Z,38.08
2022-11-24T09:13:29.556Z,40.50
2022-11-24T09:15:58.589Z,40.42
2022-11-24T09:18:30.266Z,39.05
2022-11-24T09:21:06.694Z,37.08
2022-11-24T09:23:34.457Z,37.45
2022-11-24T09:28:31.103Z,35.28
2022-11-24T09:31:01.298Z,34.67
2022-11-24T09:33:29.310Z,34.78
2022-11-24T09:35:57.277Z,33.42
2022-11-24T09:38:25.073Z,35.72
2022-11-24T09:43:25.934Z,32.75
2022-11-24T09:46:05.663Z,34.10
2022-11-24T09:48:36.402Z,33.42
2022-11-24T09:51:05.350Z,33.22
2022-11-24T09:53:35.497Z,33.90
2022-11-24T09:56:06.309Z,34.92
2022-11-24T09:58:41.340Z,32.55
2022-11-24T10:01:13.918Z,33.60
2022-11-24T10:03:43.452Z,34.42
2022-11-24T10:06:18.914Z,31.38
2022-11-24T10:09:00.713Z,32.90
2022-11-24T10:11:33.019Z,32.33
2022-11-24T10:14:25.910Z,31.92
2022-11-24T10:16:58.341Z,32.92
2022-11-24T10:19:36.984Z,32.58
2022-11-24T10:22:14.160Z,33.83
2022-11-24T10:24:51.437Z,31.48
2022-11-24T10:27:19.762Z,30.95
2022-11-24T10:29:50.485Z,31.13
2022-11-24T10:32:21.168Z,31.13
2022-11-24T10:34:50.877Z,31.85
2022-11-24T10:37:22.724Z,29.17
2022-11-24T10:39:59.876Z,29.88
2022-11-24T10:42:29.528Z,32.72
2022-11-24T10:45:01.294Z,30.75
2022-11-24T10:47:31.169Z,33.78
2022-11-24T10:50:00.685Z,31.48
2022-11-24T10:52:29.706Z,31.15
2022-11-24T10:54:58.723Z,32.03
2022-11-24T10:57:30.640Z,32.97
2022-11-24T10:59:58.537Z,31.27
2022-11-24T11:02:32.312Z,31.58
2022-11-24T11:05:00.268Z,31.13
2022-11-24T11:07:28.068Z,30.58
2022-11-24T11:10:10.853Z,30.45
2022-11-24T11:12:45.987Z,30.40
2022-11-24T11:15:24.728Z,29.92
2022-11-24T11:17:57.438Z,29.55
2022-11-24T11:20:28.370Z,29.35
2022-11-24T11:22:57.488Z,28.67
2022-11-24T11:25:27.100Z,27.85
2022-11-24T11:28:16.521Z,28.13
2022-11-24T11:34:04.352Z,26.38
2022-11-24T11:36:34.139Z,27.20
2022-11-24T11:39:03.711Z,24.48
2022-11-24T11:41:32.817Z,25.75
2022-11-24T11:44:14.691Z,25.60
2022-11-24T11:46:42.900Z,23.98
2022-11-24T11:49:12.465Z,23.92
2022-11-24T11:51:45.768Z,25.10
2022-11-24T11:54:19.627Z,23.40
2022-11-24T11:56:49.263Z,24.08
2022-11-24T11:59:29.354Z,22.33
2022-11-24T12:02:11.588Z,23.38
2022-11-24T12:04:47.179Z,23.70
2022-11-24T12:07:27.709Z,22.60
2022-11-24T12:10:01.644Z,22.48
2022-11-24T12:12:46.994Z,22.15
2022-11-24T12:15:20.873Z,20.80
2022-11-24T12:17:53.653Z,21.17
2022-11-24T12:20:32.677Z,20.83
2022-11-24T12:23:03.785Z,20.08
2022-11-24T12:25:34.315Z,19.00
2022-11-24T12:28:06.972Z,19.75
2022-11-24T12:30:39.681Z,18.98
2022-11-24T12:33:13.725Z,20.73
2022-11-24T12:35:44.198Z,19.08
2022-11-24T12:38:26.967Z,18.75
2022-11-24T12:41:39.716Z,18.23
2022-11-24T12:43:53.950Z,18.17
2022-11-24T12:46:24.968Z,20.00
2022-11-24T12:48:58.156Z,18.58
2022-11-24T12:51:29.361Z,18.80
2022-11-24T12:53:58.831Z,18.08
2022-11-24T12:56:30.477Z,17.98
2022-11-24T12:59:04.249Z,20.48
2022-11-24T13:01:35.013Z,18.23
2022-11-24T13:04:07.022Z,17.88
2022-11-24T13:06:43.074Z,18.77
2022-11-24T13:09:14.303Z,17.73
2022-11-24T13:11:43.275Z,17.38
2022-11-24T13:14:16.218Z,17.92
2022-11-24T13:17:21.172Z,18.58
2022-11-24T13:19:38.640Z,19.40
2022-11-24T13:22:17.851Z,18.70
2022-11-24T13:24:45.987Z,18.35
2022-11-24T13:27:29.872Z,18.90
2022-11-24T13:29:57.635Z,18.05
2022-11-24T13:34:56.193Z,16.60
2022-11-24T13:37:38.847Z,16.58
2022-11-24T13:40:30.807Z,18.48
2022-11-24T13:43:13.423Z,17.92
2022-11-24T13:45:51.738Z,18.08
2022-11-24T13:51:05.879Z,15.90
2022-11-24T13:53:35.849Z,17.02
2022-11-24T13:56:09.621Z,16.63
2022-11-24T13:58:38.425Z,15.07
2022-11-24T14:01:13.524Z,18.23
2022-11-24T14:04:07.153Z,18.40
2022-11-24T14:06:34.323Z,17.33
2022-11-24T14:09:02.782Z,18.15
2022-11-24T14:11:31.870Z,17.88
2022-11-24T14:13:59.619Z,18.60
2022-11-24T14:18:54.955Z,17.95
2022-11-24T14:21:26.873Z,18.15
2022-11-24T14:23:56.150Z,17.48
2022-11-24T14:26:24.720Z,18.33
2022-11-24T14:28:54.850Z,17.50
2022-11-24T14:31:24.386Z,17.95
2022-11-24T14:33:52.698Z,19.17
2022-11-24T14:36:20.469Z,18.92
2022-11-24T14:41:23.054Z,19.10
2022-11-24T14:43:51.342Z,19.38
2022-11-24T14:46:20.925Z,17.30
2022-11-24T14:48:49.634Z,20.00
2022-11-24T14:51:20.886Z,18.63
2022-11-24T14:53:50.265Z,19.63
2022-11-24T14:56:25.226Z,18.48
2022-11-24T14:58:53.303Z,18.90
2022-11-24T15:01:24.452Z,18.63
2022-11-24T15:04:13.065Z,18.08
2022-11-24T15:06:46.962Z,26.42
2022-11-24T15:09:26.702Z,22.55
2022-11-24T15:11:55.013Z,19.58
2022-11-24T15:14:40.710Z,20.40
2022-11-24T15:17:16.913Z,18.65
2022-11-24T15:19:46.133Z,19.73
2022-11-24T15:22:44.001Z,18.88
2022-11-24T15:25:39.335Z,18.98
2022-11-24T15:28:07.138Z,20.55
2022-11-24T15:33:03.892Z,20.05
2022-11-24T15:35:32.522Z,20.80
2022-11-24T15:38:00.242Z,20.15
2022-11-24T15:42:56.188Z,20.80
2022-11-24T15:45:25.148Z,20.58
2022-11-24T15:47:53.134Z,22.08
2022-11-24T15:50:22.771Z,23.10
2022-11-24T15:52:50.612Z,20.48
2022-11-24T15:55:19.349Z,20.05
2022-11-24T15:57:47.164Z,19.88
2022-11-24T16:00:16.067Z,22.10
2022-11-24T16:02:43.873Z,20.55
2022-11-24T16:05:12.363Z,19.77
2022-11-24T16:07:41.884Z,21.60
2022-11-24T16:10:16.118Z,21.50
2022-11-24T16:12:44.146Z,20.13
2022-11-24T16:15:11.980Z,21.25
2022-11-24T16:17:39.708Z,22.92
2022-11-24T16:22:35.545Z,22.00
2022-11-24T16:25:05.413Z,20.73
2022-11-24T16:27:33.248Z,22.38
2022-11-24T16:32:30.428Z,20.15
2022-11-24T16:34:58.230Z,21.25
2022-11-24T16:37:26.018Z,21.98
2022-11-24T16:39:57.588Z,22.40
2022-11-24T16:42:26.737Z,22.23
2022-11-24T16:44:55.314Z,22.77
2022-11-24T16:49:52.710Z,21.05
2022-11-24T16:52:20.583Z,22.10
2022-11-24T16:54:48.372Z,21.38
2022-11-24T16:59:45.960Z,20.60
2022-11-24T17:02:14.432Z,21.48
2022-11-24T17:04:42.377Z,20.55
2022-11-24T17:07:10.257Z,22.13
2022-11-24T17:09:40.844Z,21.27
2022-11-24T17:12:08.953Z,24.10
2022-11-24T17:14:37.095Z,22.48
2022-11-24T17:17:06.389Z,21.83
2022-11-24T17:19:34.171Z,21.38
2022-11-24T17:22:02.177Z,20.60
2022-11-24T17:24:29.910Z,22.85
2022-11-24T17:29:25.994Z,21.40
2022-11-24T17:31:54.358Z,22.30
2022-11-24T17:34:25.982Z,22.48
2022-11-24T17:36:53.712Z,21.25
2022-11-24T17:41:53.273Z,20.25
2022-11-24T17:46:51.402Z,20.27
2022-11-24T17:49:23.437Z,21.02
2022-11-24T17:51:52.724Z,21.30
2022-11-24T17:57:08.392Z,20.92
2022-11-24T18:02:04.263Z,20.52
2022-11-24T18:04:32.093Z,20.02
2022-11-24T18:07:01.297Z,21.52
2022-11-24T18:09:29.150Z,23.88
2022-11-24T18:11:59.737Z,24.90
2022-11-24T18:14:27.700Z,25.38
2022-11-24T18:16:55.779Z,22.58
2022-11-24T18:19:23.859Z,22.25
2022-11-24T18:21:52.294Z,22.33
2022-11-24T18:24:24.223Z,21.58
2022-11-24T18:26:52.196Z,21.77
2022-11-24T18:31:47.683Z,23.27
2022-11-24T18:34:15.478Z,24.17
2022-11-24T18:36:45.121Z,20.90
2022-11-24T18:39:17.826Z,22.17
2022-11-24T18:41:47.234Z,22.23
2022-11-24T18:44:14.979Z,24.65
2022-11-24T18:49:10.543Z,22.38
2022-11-24T18:51:38.249Z,22.75
2022-11-24T18:56:33.653Z,24.35
2022-11-24T18:59:02.842Z,26.02
2022-11-24T19:01:30.768Z,24.63
2022-11-24T19:03:59.274Z,24.13
2022-11-24T19:06:32.207Z,24.52
2022-11-24T19:09:01.276Z,22.00
2022-11-24T19:11:29.785Z,24.67
2022-11-24T19:13:57.985Z,26.33
2022-11-24T19:16:27.670Z,22.00
2022-11-24T19:18:57.351Z,21.35
2022-11-24T19:21:25.586Z,22.58
2022-11-24T19:23:53.463Z,22.58
2022-11-24T19:26:21.269Z,21.27
2022-11-24T19:28:51.648Z,20.85
2022-11-24T19:31:20.175Z,22.70
2022-11-24T19:33:49.534Z,23.52
2022-11-24T19:36:18.387Z,23.90
2022-11-24T19:38:50.249Z,23.48
2022-11-24T19:41:19.491Z,24.70
2022-11-24T19:43:47.529Z,22.45
2022-11-24T19:46:16.377Z,22.50
2022-11-24T19:48:44.794Z,22.85
2022-11-24T19:51:14.820Z,25.15
2022-11-24T19:53:43.285Z,25.17
2022-11-24T19:56:12.473Z,24.48
2022-11-24T19:58:40.731Z,23.65
2022-11-24T20:01:09.123Z,23.90
2022-11-24T20:03:37.019Z,24.90
2022-11-24T20:06:05.307Z,23.80
2022-11-24T20:08:35.279Z,24.58
2022-11-24T20:11:06.315Z,24.17
2022-11-24T20:13:34.741Z,24.67
2022-11-24T20:16:05.958Z,25.35
2022-11-24T20:18:38.922Z,24.33
2022-11-24T20:21:11.023Z,26.77
2022-11-24T20:23:40.394Z,24.05
2022-11-24T20:26:09.222Z,24.20
2022-11-24T20:28:37.125Z,24.45
2022-11-24T20:31:05.318Z,23.42
2022-11-24T20:33:33.175Z,24.08
2022-11-24T20:36:04.990Z,22.75
2022-11-24T20:38:34.502Z,23.83
2022-11-24T20:41:08.745Z,23.42
2022-11-24T20:43:37.215Z,23.83
2022-11-24T20:46:05.241Z,23.90
2022-11-24T20:48:34.109Z,25.55
2022-11-24T20:51:05.448Z,25.75
2022-11-24T20:53:33.358Z,24.50
2022-11-24T20:56:05.926Z,23.80
2022-11-24T20:58:36.316Z,23.58
2022-11-24T21:01:04.731Z,23.27
2022-11-24T21:03:36.146Z,22.20
2022-11-24T21:06:06.459Z,23.02
2022-11-24T21:08:34.713Z,22.42
2022-11-24T21:11:02.691Z,25.45
2022-11-24T21:13:30.822Z,24.25
2022-11-24T21:15:59.982Z,24.60
2022-11-24T21:18:27.935Z,24.67
2022-11-24T21:20:55.684Z,25.42
2022-11-24T21:25:51.102Z,22.85
2022-11-24T21:30:46.339Z,23.80
2022-11-24T21:33:16.932Z,22.92
2022-11-24T21:35:44.732Z,22.60
2022-11-24T21:40:40.081Z,24.42
2022-11-24T21:43:07.919Z,21.02
2022-11-24T21:48:03.344Z,22.58
2022-11-24T21:50:33.070Z,22.20
2022-11-24T21:53:03.600Z,25.15
2022-11-24T21:55:31.545Z,25.17
2022-11-24T21:57:59.306Z,23.00
2022-11-24T22:02:55.420Z,23.40
2022-11-24T22:05:23.248Z,23.98
2022-11-24T22:07:52.440Z,23.20
2022-11-24T22:10:20.210Z,24.15
2022-11-24T22:15:15.479Z,23.20
2022-11-24T22:17:43.198Z,24.10
2022-11-24T22:22:38.490Z,22.75
2022-11-24T22:27:35.188Z,25.50
2022-11-24T22:30:06.021Z,24.08
2022-11-24T22:32:33.787Z,24.65
2022-11-24T22:35:03.639Z,23.33
2022-11-24T22:37:31.552Z,24.90
2022-11-24T22:39:59.273Z,24.30
2022-11-24T22:44:56.058Z,25.63
2022-11-24T22:47:24.046Z,25.63
2022-11-24T22:49:51.862Z,25.40
2022-11-24T22:54:47.304Z,26.85
2022-11-24T22:57:15.083Z,25.60
2022-11-24T22:59:42.907Z,26.65
2022-11-24T23:02:12.004Z,24.35
2022-11-24T23:04:40.023Z,24.35
2022-11-24T23:07:08.006Z,26.20
2022-11-24T23:09:39.481Z,25.25
2022-11-24T23:12:08.057Z,24.45
2022-11-24T23:14:36.095Z,23.60
2022-11-24T23:17:04.063Z,24.05
2022-11-24T23:19:33.239Z,23.02
2022-11-24T23:22:00.966Z,24.65
2022-11-24T23:26:56.736Z,23.65
2022-11-24T23:31:52.017Z,24.60
2022-11-24T23:34:19.758Z,23.92
2022-11-24T23:39:16.617Z,22.65
2022-11-24T23:41:44.408Z,23.15
2022-11-24T23:46:39.817Z,21.83
2022-11-24T23:51:35.092Z,23.88
2022-11-24T23:54:03.112Z,22.77
2022-11-24T23:56:33.431Z,22.33
2022-11-24T23:59:01.705Z,22.88
